createdAt,value
2023-03-02T00:00:06.504Z,6.70
2023-03-02T00:02:52.192Z,6.73
2023-03-02T00:05:38.587Z,6.90
2023-03-02T00:08:24.183Z,6.60
2023-03-02T00:11:09.690Z,6.90
2023-03-02T00:13:55.128Z,6.47
2023-03-02T00:16:40.686Z,6.60
2023-03-02T00:19:26.045Z,6.27
2023-03-02T00:22:11.482Z,6.53
2023-03-02T00:24:57.038Z,7.03
2023-03-02T00:27:43.201Z,6.10
2023-03-02T00:30:28.624Z,6.60
2023-03-02T00:33:14.068Z,6.43
2023-03-02T00:35:59.262Z,6.67
2023-03-02T00:38:44.998Z,6.83
2023-03-02T00:41:30.658Z,6.43
2023-03-02T00:44:17.837Z,6.83
2023-03-02T00:47:03.582Z,6.70
2023-03-02T00:49:49.255Z,7.23
2023-03-02T00:52:34.915Z,7.00
2023-03-02T00:55:20.102Z,6.87
2023-03-02T00:58:06.168Z,6.50
2023-03-02T01:00:51.720Z,6.77
2023-03-02T01:03:37.848Z,6.60
2023-03-02T01:06:23.845Z,6.73
2023-03-02T01:09:09.228Z,6.50
2023-03-02T01:11:54.876Z,5.90
2023-03-02T01:14:44.044Z,6.37
2023-03-02T01:17:30.661Z,6.63
2023-03-02T01:20:17.016Z,6.70
2023-03-02T01:23:02.713Z,6.50
2023-03-02T01:25:48.006Z,6.60
2023-03-02T01:28:33.698Z,6.83
2023-03-02T01:31:18.764Z,7.53
2023-03-02T01:34:04.088Z,6.80
2023-03-02T01:36:49.247Z,6.97
2023-03-02T01:39:34.606Z,7.90
2023-03-02T01:42:20.003Z,8.10
2023-03-02T01:45:26.366Z,8.07
2023-03-02T01:48:13.871Z,8.07
2023-03-02T01:51:01.939Z,8.80
2023-03-02T01:53:51.068Z,7.40
2023-03-02T01:56:41.078Z,7.57
2023-03-02T01:59:30.226Z,8.10
2023-03-02T02:02:15.821Z,7.00
2023-03-02T02:05:02.213Z,7.10
2023-03-02T02:07:47.485Z,7.13
2023-03-02T02:10:34.264Z,6.80
2023-03-02T02:13:19.850Z,7.47
2023-03-02T02:16:06.793Z,7.30
2023-03-02T02:18:52.790Z,6.93
2023-03-02T02:21:38.119Z,7.00
2023-03-02T02:24:37.141Z,7.03
2023-03-02T02:27:22.696Z,7.47
2023-03-02T02:30:10.638Z,6.90
2023-03-02T02:32:58.372Z,7.00
2023-03-02T02:35:46.634Z,6.90
2023-03-02T02:38:33.838Z,6.80
2023-03-02T02:41:24.783Z,7.23
2023-03-02T02:44:15.903Z,7.13
2023-03-02T02:47:01.389Z,7.13
2023-03-02T02:49:49.914Z,6.80
2023-03-02T02:52:35.473Z,6.87
2023-03-02T02:55:24.016Z,6.80
2023-03-02T02:58:26.154Z,6.80
2023-03-02T03:01:17.946Z,6.70
2023-03-02T03:04:06.516Z,6.10
2023-03-02T03:06:53.986Z,7.00
2023-03-02T03:09:39.595Z,6.80
2023-03-02T03:12:28.939Z,6.77
2023-03-02T03:15:15.028Z,7.17
2023-03-02T03:18:00.184Z,6.40
2023-03-02T03:20:46.814Z,7.07
2023-03-02T03:23:32.270Z,6.70
2023-03-02T03:26:18.056Z,6.73
2023-03-02T03:29:05.239Z,6.73
2023-03-02T03:31:51.609Z,6.67
2023-03-02T03:34:38.334Z,6.73
2023-03-02T03:37:23.877Z,6.70
2023-03-02T03:40:09.889Z,7.00
2023-03-02T03:42:57.849Z,6.87
2023-03-02T03:45:43.305Z,7.13
2023-03-02T03:48:28.755Z,6.43
2023-03-02T03:51:14.030Z,6.50
2023-03-02T03:54:00.034Z,7.23
2023-03-02T03:56:50.909Z,6.43
2023-03-02T03:59:37.326Z,6.30
2023-03-02T04:02:24.169Z,6.57
2023-03-02T04:05:10.988Z,6.80
2023-03-02T04:07:56.455Z,6.70
2023-03-02T04:10:41.891Z,6.20
2023-03-02T04:13:27.377Z,6.73
2023-03-02T04:16:13.046Z,6.87
2023-03-02T04:18:58.885Z,7.10
2023-03-02T04:21:48.776Z,6.43
2023-03-02T04:24:35.970Z,7.20
2023-03-02T04:27:22.688Z,6.90
2023-03-02T04:30:09.039Z,7.13
2023-03-02T04:32:54.862Z,6.80
2023-03-02T04:35:40.524Z,7.23
2023-03-02T04:38:26.359Z,7.37
2023-03-02T04:41:11.693Z,7.80
2023-03-02T04:43:57.168Z,6.87
2023-03-02T04:46:44.833Z,6.77
2023-03-02T04:49:30.509Z,7.00
2023-03-02T04:52:16.389Z,6.60
2023-03-02T04:55:02.093Z,7.03
2023-03-02T04:57:47.936Z,7.23
2023-03-02T05:00:34.400Z,6.40
2023-03-02T05:03:19.903Z,7.23
2023-03-02T05:06:06.021Z,7.03
2023-03-02T05:08:52.878Z,7.80
2023-03-02T05:11:38.714Z,7.00
2023-03-02T05:14:25.002Z,6.90
2023-03-02T05:17:10.528Z,8.03
2023-03-02T05:19:55.945Z,8.10
2023-03-02T05:22:41.926Z,7.13
2023-03-02T05:25:30.312Z,7.50
2023-03-02T05:28:16.086Z,7.93
2023-03-02T05:31:01.657Z,7.40
2023-03-02T05:33:48.042Z,8.07
2023-03-02T05:36:33.810Z,7.70
2023-03-02T05:39:19.388Z,7.20
2023-03-02T05:42:04.477Z,8.13
2023-03-02T05:44:49.912Z,7.70
2023-03-02T05:47:35.177Z,8.10
2023-03-02T05:50:21.360Z,7.93
2023-03-02T05:53:07.772Z,7.70
2023-03-02T05:55:53.844Z,7.80
2023-03-02T05:58:39.292Z,8.07
2023-03-02T06:01:24.682Z,8.30
2023-03-02T06:04:10.052Z,8.20
2023-03-02T06:06:56.427Z,8.67
2023-03-02T06:09:41.972Z,8.90
2023-03-02T06:12:27.363Z,8.20
2023-03-02T06:15:13.209Z,7.90
2023-03-02T06:17:58.511Z,8.43
2023-03-02T06:20:43.815Z,8.40
2023-03-02T06:23:29.348Z,8.43
2023-03-02T06:26:14.662Z,8.10
2023-03-02T06:29:00.132Z,8.60
2023-03-02T06:31:45.641Z,9.27
2023-03-02T06:34:31.430Z,8.77
2023-03-02T06:37:16.769Z,8.23
2023-03-02T06:40:03.057Z,8.00
2023-03-02T06:42:48.184Z,8.00
2023-03-02T06:45:33.535Z,8.20
2023-03-02T06:48:18.903Z,8.03
2023-03-02T06:51:04.798Z,8.30
2023-03-02T06:53:50.253Z,8.07
2023-03-02T06:56:35.959Z,7.70
2023-03-02T06:59:20.988Z,8.10
2023-03-02T07:02:06.738Z,8.13
2023-03-02T07:04:51.871Z,7.97
2023-03-02T07:07:37.531Z,8.33
2023-03-02T07:10:23.018Z,8.13
2023-03-02T07:13:09.376Z,8.27
2023-03-02T07:15:54.567Z,8.77
2023-03-02T07:18:40.791Z,8.10
2023-03-02T07:21:26.097Z,8.70
2023-03-02T07:24:11.320Z,8.30
2023-03-02T07:26:56.736Z,8.67
2023-03-02T07:29:42.170Z,9.77
2023-03-02T07:32:27.771Z,8.37
2023-03-02T07:35:13.251Z,8.33
2023-03-02T07:37:58.206Z,8.07
2023-03-02T07:40:43.924Z,8.90
2023-03-02T07:43:29.305Z,8.67
2023-03-02T07:46:14.443Z,8.77
2023-03-02T07:48:59.974Z,8.87
2023-03-02T07:51:45.227Z,8.47
2023-03-02T07:54:31.040Z,8.80
2023-03-02T07:57:16.413Z,8.23
2023-03-02T08:00:02.406Z,8.80
2023-03-02T08:02:56.995Z,9.17
2023-03-02T08:05:42.676Z,8.60
2023-03-02T08:08:28.594Z,8.77
2023-03-02T08:11:16.456Z,8.53
2023-03-02T08:14:02.920Z,8.40
2023-03-02T08:16:48.192Z,8.17
2023-03-02T08:19:33.548Z,9.30
2023-03-02T08:22:18.780Z,9.20
2023-03-02T08:25:04.575Z,8.83
2023-03-02T08:27:50.300Z,9.50
2023-03-02T08:30:35.722Z,9.93
2023-03-02T08:33:21.211Z,9.13
2023-03-02T08:36:11.245Z,9.30
2023-03-02T08:38:56.282Z,8.67
2023-03-02T08:41:41.753Z,9.07
2023-03-02T08:44:27.372Z,9.60
2023-03-02T08:47:12.910Z,8.57
2023-03-02T08:49:58.150Z,9.87
2023-03-02T08:52:43.721Z,9.30
2023-03-02T08:55:29.077Z,9.47
2023-03-02T08:58:14.995Z,9.83
2023-03-02T09:01:00.302Z,9.70
2023-03-02T09:03:46.241Z,9.40
2023-03-02T09:06:34.528Z,9.77
2023-03-02T09:09:19.851Z,10.33
2023-03-02T09:12:05.048Z,9.87
2023-03-02T09:14:50.289Z,10.10
2023-03-02T09:17:35.506Z,10.03
2023-03-02T09:20:21.281Z,9.50
2023-03-02T09:23:06.707Z,8.93
2023-03-02T09:25:52.813Z,10.07
2023-03-02T09:28:38.637Z,9.87
2023-03-02T09:31:24.403Z,9.60
2023-03-02T09:34:09.708Z,9.50
2023-03-02T09:36:55.359Z,10.47
2023-03-02T09:39:40.643Z,10.50
2023-03-02T09:42:49.285Z,10.30
2023-03-02T09:45:56.334Z,10.80
2023-03-02T09:48:47.573Z,10.30
2023-03-02T09:51:39.742Z,9.93
2023-03-02T09:54:25.569Z,9.60
2023-03-02T09:57:22.595Z,9.63
2023-03-02T10:00:30.034Z,9.20
2023-03-02T10:03:22.770Z,8.40
2023-03-02T10:06:09.273Z,9.17
2023-03-02T10:08:55.136Z,9.33
2023-03-02T10:11:46.387Z,9.20
2023-03-02T10:14:39.081Z,9.27
2023-03-02T10:17:43.552Z,7.63
2023-03-02T10:20:37.718Z,7.97
2023-03-02T10:23:38.593Z,7.53
2023-03-02T10:26:32.301Z,7.93
2023-03-02T10:29:50.111Z,7.90
2023-03-02T10:32:43.561Z,8.10
2023-03-02T10:35:30.771Z,7.70
2023-03-02T10:38:22.390Z,7.23
2023-03-02T10:41:15.151Z,7.17
2023-03-02T10:44:23.736Z,7.90
2023-03-02T10:47:28.951Z,7.23
2023-03-02T10:50:22.118Z,7.57
2023-03-02T10:53:17.276Z,7.00
2023-03-02T10:56:05.499Z,7.60
2023-03-02T10:58:50.965Z,6.87
2023-03-02T11:01:36.352Z,6.20
2023-03-02T11:04:22.192Z,6.47
2023-03-02T11:07:28.407Z,7.30
2023-03-02T11:10:21.005Z,7.10
2023-03-02T11:13:19.612Z,7.40
2023-03-02T11:16:24.480Z,7.07
2023-03-02T11:19:34.829Z,7.13
2023-03-02T11:22:41.668Z,7.73
2023-03-02T11:25:35.450Z,7.00
2023-03-02T11:28:47.079Z,7.23
2023-03-02T11:31:41.346Z,7.43
2023-03-02T11:34:51.005Z,7.97
2023-03-02T11:37:42.644Z,7.27
2023-03-02T11:40:47.054Z,7.70
2023-03-02T11:43:32.721Z,7.00
2023-03-02T11:46:26.411Z,7.57
2023-03-02T11:49:18.790Z,7.27
2023-03-02T11:52:04.288Z,6.87
2023-03-02T11:54:55.456Z,6.23
2023-03-02T11:57:45.403Z,6.57
2023-03-02T12:00:36.839Z,7.27
2023-03-02T12:03:33.179Z,6.83
2023-03-02T12:06:18.697Z,7.47
2023-03-02T12:09:12.283Z,6.00
2023-03-02T12:12:14.911Z,6.63
2023-03-02T12:15:00.947Z,6.00
2023-03-02T12:17:46.576Z,5.87
2023-03-02T12:20:31.835Z,5.40
2023-03-02T12:23:23.553Z,5.20
2023-03-02T12:26:26.581Z,4.50
2023-03-02T12:29:12.059Z,4.40
2023-03-02T12:31:57.559Z,4.50
2023-03-02T12:34:51.732Z,4.50
2023-03-02T12:37:48.498Z,4.40
2023-03-02T12:41:02.484Z,3.70
2023-03-02T12:43:58.071Z,4.23
2023-03-02T12:46:48.961Z,4.37
2023-03-02T12:50:16.352Z,4.83
2023-03-02T12:53:04.575Z,4.10
2023-03-02T12:55:49.994Z,4.37
2023-03-02T12:58:35.697Z,4.97
2023-03-02T13:01:29.067Z,4.77
2023-03-02T13:04:26.981Z,5.10
2023-03-02T13:07:22.914Z,4.60
2023-03-02T13:10:30.624Z,5.30
2023-03-02T13:13:39.123Z,4.90
2023-03-02T13:16:24.737Z,4.40
2023-03-02T13:19:16.408Z,4.57
2023-03-02T13:22:01.817Z,5.27
2023-03-02T13:24:51.939Z,4.70
2023-03-02T13:27:37.426Z,5.00
2023-03-02T13:30:26.469Z,5.10
2023-03-02T13:33:23.803Z,4.17
2023-03-02T13:36:27.552Z,4.97
2023-03-02T13:39:28.000Z,4.57
2023-03-02T13:42:26.378Z,4.03
2023-03-02T13:45:22.757Z,4.70
2023-03-02T13:48:14.976Z,4.50
2023-03-02T13:51:16.073Z,4.53
2023-03-02T13:54:06.344Z,4.00
2023-03-02T13:56:52.842Z,4.40
2023-03-02T13:59:39.682Z,5.10
2023-03-02T14:02:29.682Z,4.63
2023-03-02T14:05:18.122Z,4.40
2023-03-02T14:08:03.330Z,4.50
2023-03-02T14:10:51.636Z,4.30
2023-03-02T14:13:47.575Z,3.70
2023-03-02T14:16:36.292Z,4.00
2023-03-02T14:19:22.080Z,4.27
2023-03-02T14:22:11.309Z,3.87
2023-03-02T14:24:56.365Z,4.20
2023-03-02T14:27:44.260Z,4.00
2023-03-02T14:30:29.488Z,4.03
2023-03-02T14:33:34.619Z,4.30
2023-03-02T14:36:28.895Z,4.07
2023-03-02T14:39:27.830Z,4.00
2023-03-02T14:42:16.066Z,4.57
2023-03-02T14:45:01.387Z,4.20
2023-03-02T14:47:47.145Z,4.10
2023-03-02T14:50:38.518Z,4.13
2023-03-02T14:53:29.718Z,4.20
2023-03-02T14:56:17.639Z,3.97
2023-03-02T14:59:02.860Z,4.50
2023-03-02T15:01:48.290Z,4.33
2023-03-02T15:04:34.256Z,8.83
2023-03-02T15:07:21.483Z,4.53
2023-03-02T15:10:08.941Z,4.97
2023-03-02T15:12:54.229Z,5.20
2023-03-02T15:15:41.159Z,5.13
2023-03-02T15:18:26.569Z,5.70
2023-03-02T15:21:17.644Z,5.83
2023-03-02T15:24:03.252Z,6.20
2023-03-02T15:26:52.806Z,5.90
2023-03-02T15:29:38.499Z,5.47
2023-03-02T15:32:23.864Z,5.80
2023-03-02T15:35:09.449Z,6.03
2023-03-02T15:37:55.044Z,5.93
2023-03-02T15:40:40.516Z,6.23
2023-03-02T15:43:26.097Z,6.00
2023-03-02T15:46:12.110Z,5.80
2023-03-02T15:48:57.859Z,6.57
2023-03-02T15:51:44.074Z,6.47
2023-03-02T15:54:32.539Z,6.57
2023-03-02T15:57:18.620Z,6.20
2023-03-02T16:00:05.463Z,5.90
2023-03-02T16:02:51.603Z,5.97
2023-03-02T16:05:37.252Z,5.90
2023-03-02T16:08:23.055Z,6.07
2023-03-02T16:11:10.230Z,6.10
2023-03-02T16:13:56.299Z,6.47
2023-03-02T16:16:43.414Z,6.50
2023-03-02T16:19:29.438Z,6.20
2023-03-02T16:22:15.326Z,6.67
2023-03-02T16:25:01.028Z,6.27
2023-03-02T16:27:47.120Z,6.60
2023-03-02T16:30:39.482Z,6.27
2023-03-02T16:33:29.148Z,6.83
2023-03-02T16:36:14.887Z,6.70
2023-03-02T16:38:59.993Z,6.33
2023-03-02T16:41:45.472Z,6.77
2023-03-02T16:44:31.006Z,6.83
2023-03-02T16:47:16.406Z,7.10
2023-03-02T16:50:02.558Z,7.30
2023-03-02T16:52:48.022Z,7.30
2023-03-02T16:55:33.292Z,7.43
2023-03-02T16:58:18.801Z,7.40
2023-03-02T17:01:09.047Z,7.50
2023-03-02T17:03:54.506Z,7.60
2023-03-02T17:06:59.720Z,7.50
2023-03-02T17:09:45.301Z,7.57
2023-03-02T17:12:30.516Z,8.07
2023-03-02T17:15:15.653Z,7.43
2023-03-02T17:18:01.189Z,7.93
2023-03-02T17:20:51.446Z,8.03
2023-03-02T17:23:37.072Z,8.30
2023-03-02T17:26:22.859Z,8.30
2023-03-02T17:29:08.129Z,8.27
2023-03-02T17:31:53.906Z,8.30
2023-03-02T17:34:39.275Z,8.27
2023-03-02T17:37:24.949Z,8.80
2023-03-02T17:40:15.036Z,9.10
2023-03-02T17:43:00.429Z,8.73
2023-03-02T17:45:45.750Z,9.13
2023-03-02T17:48:31.329Z,9.10
2023-03-02T17:51:17.689Z,9.27
2023-03-02T17:54:04.211Z,8.90
2023-03-02T17:56:49.818Z,9.03
2023-03-02T17:59:35.691Z,9.03
2023-03-02T18:02:20.895Z,10.00
2023-03-02T18:05:07.232Z,10.73
2023-03-02T18:07:52.604Z,10.10
2023-03-02T18:10:37.974Z,10.10
2023-03-02T18:13:23.542Z,10.40
2023-03-02T18:16:09.288Z,10.27
2023-03-02T18:18:55.588Z,10.60
2023-03-02T18:21:41.053Z,11.10
2023-03-02T18:24:26.210Z,11.37
2023-03-02T18:27:11.938Z,11.13
2023-03-02T18:29:57.554Z,11.00
2023-03-02T18:32:44.190Z,11.03
2023-03-02T18:35:29.452Z,11.47
2023-03-02T18:38:14.945Z,11.40
2023-03-02T18:41:03.545Z,11.20
2023-03-02T18:43:49.668Z,12.00
2023-03-02T18:46:35.445Z,11.57
2023-03-02T18:49:21.218Z,11.50
2023-03-02T18:52:06.649Z,11.57
2023-03-02T18:54:52.096Z,12.30
2023-03-02T18:57:37.743Z,12.80
2023-03-02T19:00:28.039Z,12.80
2023-03-02T19:03:15.014Z,12.97
2023-03-02T19:06:02.024Z,13.37
2023-03-02T19:08:47.453Z,13.57
2023-03-02T19:11:33.045Z,12.90
2023-03-02T19:14:18.454Z,13.13
2023-03-02T19:17:03.714Z,14.20
2023-03-02T19:19:49.227Z,13.60
2023-03-02T19:22:34.750Z,13.73
2023-03-02T19:25:20.123Z,14.33
2023-03-02T19:28:07.084Z,13.67
2023-03-02T19:30:52.259Z,15.03
2023-03-02T19:33:39.864Z,15.63
2023-03-02T19:36:25.617Z,15.97
2023-03-02T19:39:11.024Z,15.90
2023-03-02T19:41:56.445Z,14.57
2023-03-02T19:44:41.728Z,14.23
2023-03-02T19:47:27.082Z,15.00
2023-03-02T19:50:13.694Z,15.13
2023-03-02T19:52:59.222Z,14.50
2023-03-02T19:55:45.319Z,13.80
2023-03-02T19:58:30.643Z,16.00
2023-03-02T20:01:18.553Z,15.17
2023-03-02T20:04:04.259Z,16.17
2023-03-02T20:06:49.510Z,16.67
2023-03-02T20:09:34.768Z,16.90
2023-03-02T20:12:20.042Z,16.67
2023-03-02T20:15:06.327Z,16.47
2023-03-02T20:17:52.233Z,15.70
2023-03-02T20:20:37.360Z,16.50
2023-03-02T20:23:22.744Z,16.90
2023-03-02T20:26:08.413Z,16.63
2023-03-02T20:28:57.087Z,61.70
2023-03-02T20:31:43.720Z,21.27
2023-03-02T20:34:29.877Z,17.20
2023-03-02T20:37:15.853Z,17.40
2023-03-02T20:40:02.203Z,16.67
2023-03-02T20:42:47.579Z,16.27
2023-03-02T20:45:33.390Z,16.10
2023-03-02T20:48:18.858Z,16.50
2023-03-02T20:51:05.522Z,17.27
2023-03-02T20:53:55.490Z,17.53
2023-03-02T20:56:42.962Z,18.00
2023-03-02T20:59:29.301Z,17.60
2023-03-02T21:02:20.526Z,18.00
2023-03-02T21:05:07.303Z,17.30
2023-03-02T21:07:54.122Z,17.47
2023-03-02T21:10:42.526Z,18.10
2023-03-02T21:13:30.249Z,18.70
2023-03-02T21:16:29.244Z,18.47
2023-03-02T21:19:17.365Z,18.13
2023-03-02T21:22:03.006Z,18.33
2023-03-02T21:24:48.236Z,18.50
2023-03-02T21:27:33.604Z,18.47
2023-03-02T21:30:23.291Z,18.70
2023-03-02T21:33:09.124Z,17.43
2023-03-02T21:35:54.583Z,18.57
2023-03-02T21:38:40.268Z,18.23
2023-03-02T21:41:25.743Z,18.67
2023-03-02T21:44:11.224Z,19.33
2023-03-02T21:46:56.615Z,19.53
2023-03-02T21:49:41.989Z,20.10
2023-03-02T21:52:27.627Z,18.83
2023-03-02T21:55:13.317Z,20.77
2023-03-02T21:57:59.038Z,21.07
2023-03-02T22:00:45.892Z,21.67
2023-03-02T22:03:31.666Z,23.23
2023-03-02T22:06:20.797Z,23.40
2023-03-02T22:09:06.086Z,24.03
2023-03-02T22:11:51.237Z,23.33
2023-03-02T22:14:37.451Z,22.73
2023-03-02T22:17:24.825Z,25.67
2023-03-02T22:20:17.141Z,26.90
2023-03-02T22:23:02.206Z,27.10
2023-03-02T22:25:53.414Z,28.23
2023-03-02T22:28:38.780Z,27.60
2023-03-02T22:31:24.205Z,28.03
2023-03-02T22:34:15.327Z,27.77
2023-03-02T22:37:10.750Z,29.53
2023-03-02T22:40:00.849Z,29.77
2023-03-02T22:42:46.012Z,30.07
2023-03-02T22:45:31.568Z,30.93
2023-03-02T22:48:19.883Z,31.63
2023-03-02T22:51:24.061Z,30.57
2023-03-02T22:54:22.682Z,30.43
2023-03-02T22:57:29.257Z,30.70
2023-03-02T23:00:14.592Z,30.83
2023-03-02T23:03:00.275Z,31.53
2023-03-02T23:05:47.769Z,32.10
2023-03-02T23:08:33.078Z,31.87
2023-03-02T23:11:21.500Z,31.33
2023-03-02T23:14:23.496Z,31.53
2023-03-02T23:17:27.194Z,31.87
2023-03-02T23:20:14.851Z,30.90
2023-03-02T23:23:00.241Z,29.97
2023-03-02T23:25:46.398Z,30.23
2023-03-02T23:28:31.724Z,29.07
2023-03-02T23:31:17.650Z,30.40
2023-03-02T23:34:02.987Z,29.60
2023-03-02T23:36:48.140Z,30.63
2023-03-02T23:39:33.555Z,31.90
2023-03-02T23:42:18.739Z,31.93
2023-03-02T23:45:04.924Z,32.23
2023-03-02T23:47:50.154Z,34.17
2023-03-02T23:50:35.347Z,32.33
2023-03-02T23:53:20.852Z,33.77
2023-03-02T23:56:06.459Z,34.53
2023-03-02T23:58:51.800Z,35.03
